Alabama Port, Alabama
Current Conditions -  °F | °C
As of 3:21 AM on Tuesday 21 Oct 2014 (Local Time) from KBFM Reporting Station
Clear Clear  
Wind Chill: 55°   Ceiling: Unl
Heat Index: 55°   Visibility: 10mi
Dew Point: 53°   Wind: 5mph
Humidity: 93%   Direction: 310°NW
Pressure: 30.02"   Gusts: NA
Location:  30.4032°N, 88.1801°W
Report Text: KBFM 210821Z 31004KT 10SM CLR 13/12 A3002 RMK AO2 T01280117
Loading
Personal Weather Stations






























Interactive Weather Map
Tropical Storm Tracking
New forecast layout! Learn more

10-Day Weather Forecast

Advertisements
Track Severe Weather on mobile